This demonstration page uses our WeatherBlox Daily Observations layout. Learn more.

41.55636, -103.73856

Hourly Observations for May 22, 2018

Temp ( °F °C ) Dew Point ( °F °C ) Humidity (%) Winds ( mph kmh ) Pressure ( in mb ) Visibility ( mi km ) Precip ( " mm )
12:58 am 00:58 Clear 54 12.1 50 10.2 88 88 ENE 6 9 29.9 1013 10 16.0934 N/A
1:58 am 01:58 Clear 53 11.7 49 9.3 85 85 ENE 7 11 29.88 1012 10 16.0934 N/A
2:58 am 02:58 Clear 53 11.7 49 9.6 87 87 ENE 9 15 29.87 1012 10 16.0934 N/A
3:58 am 03:58 Clear 52 10.9 49 9.6 92 92 E 6 9 29.89 1012 10 16.0934 N/A
4:58 am 04:58 Clear 49 9.7 48 8.7 94 94 NNE 10 17 29.89 1012 10 16.0934 N/A
5:58 am 05:58 Partly Cloudy with Mist and Fog 50 9.8 49 9.4 97 97 ENE 5 7 29.91 1013 5 8.0467 N/A
6:58 am 06:58 Cloudy with Mist and Fog 54 12.3 53 11.7 96 96 NE 7 11 29.91 1013 4 6.43736 N/A
7:58 am 07:58 Mostly Cloudy with Fog 55 12.7 54 12.1 96 96 ENE 9 15 29.91 1013 0.25 0.402335 N/A
8:58 am 08:58 Sunny 60 15.6 56 13.6 88 88 ENE 9 15 29.91 1013 10 16.0934 N/A
9:58 am 09:58 Sunny 64 17.9 57 14.1 79 79 ENE 8 13 29.89 1012 10 16.0934 N/A
10:58 am 10:58 Sunny 70 21 52 11.2 54 54 ESE 10 17 29.87 1012 10 16.0934 N/A
11:58 am 11:58 Sunny 71 21.4 54 12 55 55 SE 17 28 29.87 1012 10 16.0934 N/A
12:58 pm 12:58 Sunny 73 22.9 52 11.3 48 48 SE 16 26 29.84 1011 10 16.0934 N/A
1:58 pm 13:58 Sunny 74 23.5 51 10.7 45 45 SE 16 26 29.83 1010 10 16.0934 N/A
2:58 pm 14:58 Sunny 74 23.3 49 9.5 42 42 ESE 21 33 29.83 1010 10 16.0934 N/A
3:58 pm 15:58 Sunny 73 22.8 51 10.3 45 45 SE 18 30 29.81 1009 10 16.0934 N/A
4:58 pm 16:58 Sunny 72 22.2 51 10.8 49 49 SE 21 33 29.8 1009 10 16.0934 N/A
5:58 pm 17:58 Sunny 71 21.8 51 10.3 48 48 SE 16 26 29.8 1009 10 16.0934 N/A
6:58 pm 18:58 Sunny with Nearby Thunderstorms 68 20.1 52 11.1 56 56 SE 13 20 29.8 1009 10 16.0934 N/A
7:58 pm 19:58 Mostly Sunny 64 17.8 53 11.5 67 67 ESE 9 15 29.82 1010 10 16.0934 N/A
9:58 pm 21:58 Mostly Cloudy 57 13.9 53 11.5 86 86 WNW 7 11 29.88 1012 10 16.0934 0.01 0.254
10:58 pm 22:58 Partly Cloudy with Thunderstorms 56 13.6 51 10.6 82 82 NW 16 26 29.88 1012 10 16.0934 0.02 0.508
11:58 pm 23:58 Mostly Cloudy with Light Rain 55 12.8 49 9.5 81 81 NW 13 20 29.87 1012 10 16.0934 0 0

Powered by AerisWeather